Rocca di Papa, Italy

3:01 AM CEST on May 23, 2015 (GMT +0200)
Rocca di Papa | | Change Station
CLOSE
Current Station
Personal Weather Station
Location: RdP - Roma, IT
Elevation: 2263 ft
Nearby Weather Stations
Active Advisory: Rain

Elev 2263 ft 41.76 °N, 12.71 °E | Updated 10 seconds ago

Rain
Rain
48.4 °F
Feels Like 48 °F
N
0.0
Wind Variable Wind from West
Gusts 0.0 mph

Today
High -- | Low -- °F
--% Chance of Precip.
Yesterday
High -- | Low -- °F
Precip. -- in
5:42 AM 8:29 PM
Waxing Crescent, 25% visible
Pressure 29.83 in
Visibility 6.2 miles
Clouds Few 1600 ft
Few 1800 ft
Scattered Clouds 7000 ft
Windchill 48 °F
Dew Point 48 °F
Humidity 97%
Rainfall 0.02 in
Snow Depth Not available.
UV 0 out of 12
Pollen Not available.
Air Quality Not available.
Flu Activity Not available.
METAR LIRA 230045Z 00000KT 9999 FEW016 FEW018TCU SCT070 13/11 Q1010

More Conditions Fewer Conditions

Pressure 29.83 in
Visibility 6.2 miles
Clouds Few 1600 ft
Few 1800 ft
Scattered Clouds 7000 ft
Windchill 48 °F
Dew Point 48 °F
Humidity 97%
Rainfall 0.02 in
Snow Depth Not available.
UV 0 out of 12
Pollen Not available.
Air Quality Not available.
Flu Activity Not available.
METAR LIRA 230045Z 00000KT 9999 FEW016 FEW018TCU SCT070 13/11 Q1010

More Conditions Fewer Conditions

10-Day Weather Forecast

Almanac

Astronomy

May. 23, 2015 Rise Set
Actual Time
Civil Twilight
Nautical Twilight
Astronomical Twilight
Moon
Length of Visible Light
Length of Day
Tomorrow will be .
, % of the Moon is Illuminated

Today's Extremes

Country Highs Country Lows

Community

WunderPhotos

Upload Photos

1,823,355 photos uploaded!

WunderBlogs® & News

Nearby

Air Quality

  Air Quality AQ Index Pollutant
Not available.

Snow Depth

Station Depth Elevation

Earthquake Activity

City Distance Mag. Time & Date
Minimum magnitude displayed is 2.5.

Coastal Water Temperatures

Place Temperature

Stations

Nearby Weather Stations

Station Location Temp. Windchill Dew Point Humidity Wind Precip. Elev Updated Type